createdAt,value
2015-09-07T07:54:36.584Z,101501
2015-09-07T07:54:47.053Z,101498
2015-09-07T07:54:57.584Z,101495
2015-09-07T07:55:08.162Z,101495
2015-09-07T07:55:18.599Z,101498
2015-09-07T07:55:29.055Z,101498
2015-09-07T07:55:39.539Z,101491
2015-09-07T07:55:50.336Z,101491
2015-09-07T07:56:00.820Z,101498
2015-09-07T07:56:11.320Z,101504
2015-09-07T07:56:22.398Z,101498
2015-09-07T07:56:32.947Z,101507
2015-09-07T07:56:43.463Z,101495
2015-09-07T07:56:54.057Z,101495
2015-09-07T07:57:04.666Z,101494
2015-09-07T07:57:15.166Z,101495
2015-09-07T07:57:25.666Z,101498
2015-09-07T07:57:36.261Z,101498
2015-09-07T07:57:46.729Z,101504
2015-09-07T07:57:57.167Z,101496
2015-09-07T07:58:07.761Z,101498
2015-09-07T07:58:18.261Z,101491
2015-09-07T07:58:28.732Z,101491
2015-09-07T07:58:39.217Z,101496
2015-09-07T07:58:50.311Z,101513
2015-09-07T07:59:00.795Z,101491
2015-09-07T07:59:12.217Z,101496
2015-09-07T07:59:23.154Z,101494
2015-09-07T07:59:33.655Z,101482
2015-09-07T07:59:44.124Z,101491
2015-09-07T07:59:55.171Z,101496
2015-09-07T08:00:06.265Z,101499
2015-09-07T08:00:17.655Z,101496
2015-09-07T08:00:28.142Z,101491
2015-09-07T08:00:38.626Z,101491
2015-09-07T08:00:49.142Z,101494
2015-09-07T08:00:59.564Z,101499
2015-09-07T08:01:10.126Z,101496
2015-09-07T08:01:21.876Z,101501
2015-09-07T08:01:32.331Z,101504
2015-09-07T08:01:42.816Z,101501
2015-09-07T08:01:53.300Z,101501
2015-09-07T08:02:03.800Z,101496
2015-09-07T08:02:14.378Z,101491
2015-09-07T08:02:24.847Z,101499
2015-09-07T08:02:35.302Z,101499
2015-09-07T08:02:46.552Z,101499
2015-09-07T08:02:57.021Z,101496
2015-09-07T08:03:07.505Z,101488
2015-09-07T08:03:18.005Z,101499
2015-09-07T08:03:28.491Z,101496
2015-09-07T08:03:38.991Z,101496
2015-09-07T08:03:50.366Z,101496
2015-09-07T08:04:01.570Z,101499
2015-09-07T08:04:12.023Z,101499
2015-09-07T08:04:22.491Z,101494
2015-09-07T08:04:32.961Z,101505
2015-09-07T08:04:44.977Z,101496
2015-09-07T08:04:55.492Z,101502
2015-09-07T08:05:06.055Z,101502
2015-09-07T08:05:16.914Z,101502
2015-09-07T08:05:27.477Z,101505
2015-09-07T08:05:39.260Z,101499
2015-09-07T08:05:50.729Z,101502
2015-09-07T08:06:02.854Z,101499
2015-09-07T08:06:13.698Z,101505
2015-09-07T08:06:27.854Z,101491
2015-09-07T08:06:38.497Z,101505
2015-09-07T08:06:49.107Z,101505
2015-09-07T08:07:00.466Z,101505
2015-09-07T08:07:16.044Z,101511
2015-09-07T08:07:28.904Z,101502
2015-09-07T08:07:43.545Z,101505
2015-09-07T08:07:57.670Z,101502
2015-09-07T08:08:09.764Z,101499
2015-09-07T08:08:22.342Z,101505
2015-09-07T08:08:32.813Z,101502
2015-09-07T08:08:43.375Z,101516
2015-09-07T08:08:54.469Z,101511
2015-09-07T08:09:05.032Z,101508
2015-09-07T08:09:16.297Z,101505
2015-09-07T08:09:26.782Z,101508
2015-09-07T08:09:37.988Z,101508
2015-09-07T08:09:48.550Z,101502
2015-09-07T08:09:59.097Z,101519
2015-09-07T08:10:10.253Z,101511
2015-09-07T08:10:20.691Z,101517
2015-09-07T08:10:32.021Z,101517
2015-09-07T08:10:43.427Z,101508
2015-09-07T08:10:53.974Z,101514
2015-09-07T08:11:04.474Z,101505
2015-09-07T08:11:14.849Z,101508
2015-09-07T08:11:25.349Z,101508
2015-09-07T08:11:36.491Z,101508
2015-09-07T08:11:47.116Z,101514
2015-09-07T08:11:57.585Z,101511
2015-09-07T08:12:08.538Z,101511
2015-09-07T08:12:19.006Z,101508
2015-09-07T08:12:29.475Z,101505
2015-09-07T08:12:39.963Z,101511
2015-09-07T08:12:50.447Z,101505
2015-09-07T08:13:01.509Z,101505
2015-09-07T08:13:12.025Z,101511
2015-09-07T08:13:22.494Z,101511
2015-09-07T08:13:32.964Z,101517
2015-09-07T08:13:43.479Z,101508
2015-09-07T08:13:54.292Z,101517
2015-09-07T08:14:05.229Z,101511
2015-09-07T08:14:16.354Z,101514
2015-09-07T08:14:26.854Z,101514
2015-09-07T08:14:37.294Z,101511
2015-09-07T08:14:48.325Z,101511
2015-09-07T08:14:58.872Z,101508
2015-09-07T08:15:09.403Z,101508
2015-09-07T08:15:20.575Z,101505
2015-09-07T08:15:31.044Z,101505
2015-09-07T08:15:42.202Z,101514
2015-09-07T08:15:53.280Z,101511
2015-09-07T08:16:04.624Z,101511
2015-09-07T08:16:16.046Z,101517
2015-09-07T08:16:26.530Z,101520
2015-09-07T08:16:37.891Z,101517
2015-09-07T08:16:49.345Z,101520
2015-09-07T08:17:00.626Z,101517
2015-09-07T08:17:11.126Z,101514
2015-09-07T08:17:21.610Z,101508
2015-09-07T08:17:32.126Z,101506
2015-09-07T08:17:42.690Z,101511
2015-09-07T08:17:53.175Z,101520
2015-09-07T08:18:03.722Z,101508
2015-09-07T08:18:14.206Z,101517
2015-09-07T08:18:24.675Z,101514
2015-09-07T08:18:35.145Z,101517
2015-09-07T08:18:45.645Z,101526
2015-09-07T08:18:56.130Z,101511
2015-09-07T08:19:07.395Z,101520
2015-09-07T08:19:18.427Z,101520
2015-09-07T08:19:30.192Z,101514
2015-09-07T08:19:40.631Z,101523
2015-09-07T08:19:51.131Z,101517
2015-09-07T08:20:02.115Z,101526
2015-09-07T08:20:13.240Z,101517
2015-09-07T08:20:23.834Z,101529
2015-09-07T08:20:34.337Z,101532
2015-09-07T08:20:44.837Z,101526
2015-09-07T08:20:55.337Z,101515
2015-09-07T08:21:05.884Z,101520
2015-09-07T08:21:16.712Z,101526
2015-09-07T08:21:27.196Z,101529
2015-09-07T08:21:38.542Z,101529
2015-09-07T08:21:49.042Z,101523
2015-09-07T08:21:59.542Z,101523
2015-09-07T08:22:10.073Z,101520
2015-09-07T08:22:21.120Z,101529
2015-09-07T08:22:31.667Z,101526
2015-09-07T08:22:42.152Z,101523
2015-09-07T08:22:52.652Z,101523
2015-09-07T08:23:05.606Z,101523
2015-09-07T08:23:16.746Z,101520
2015-09-07T08:23:29.496Z,101526
2015-09-07T08:23:39.968Z,101523
2015-09-07T08:23:50.577Z,101520
2015-09-07T08:24:01.593Z,101520
2015-09-07T08:24:12.062Z,101515
2015-09-07T08:24:22.562Z,101518
2015-09-07T08:24:33.093Z,101526
2015-09-07T08:24:43.610Z,101521
2015-09-07T08:24:55.125Z,101515
2015-09-07T08:25:06.531Z,101526
2015-09-07T08:25:17.016Z,101541
2015-09-07T08:25:27.516Z,101521
2015-09-07T08:25:38.003Z,101529
2015-09-07T08:25:48.644Z,101532
2015-09-07T08:25:59.191Z,101532
2015-09-07T08:26:09.659Z,101526
2015-09-07T08:26:20.097Z,101529
2015-09-07T08:26:30.581Z,101524
2015-09-07T08:26:41.660Z,101529
2015-09-07T08:26:53.754Z,101515
2015-09-07T08:27:04.239Z,101532
2015-09-07T08:27:14.692Z,101538
2015-09-07T08:27:25.176Z,101521
2015-09-07T08:27:35.600Z,101515
2015-09-07T08:27:47.084Z,101527
2015-09-07T08:27:58.162Z,101518
2015-09-07T08:28:08.647Z,101527
2015-09-07T08:28:19.100Z,101527
2015-09-07T08:28:29.631Z,101527
2015-09-07T08:28:40.711Z,101524
2015-09-07T08:28:51.711Z,101530
2015-09-07T08:29:02.211Z,101521
2015-09-07T08:29:12.649Z,101527
2015-09-07T08:29:23.086Z,101521
2015-09-07T08:29:33.524Z,101524
2015-09-07T08:29:44.245Z,101518
2015-09-07T08:29:56.557Z,101521
2015-09-07T08:30:07.057Z,101524
2015-09-07T08:30:17.557Z,101512
2015-09-07T08:30:28.057Z,101524
2015-09-07T08:30:38.590Z,101530
2015-09-07T08:30:49.090Z,101527
2015-09-07T08:30:59.590Z,101527
2015-09-07T08:31:10.059Z,101521
2015-09-07T08:31:20.559Z,101521
2015-09-07T08:31:31.012Z,101518
2015-09-07T08:31:41.499Z,101533
2015-09-07T08:31:52.233Z,101524
2015-09-07T08:32:02.717Z,101515
2015-09-07T08:32:13.233Z,101515
2015-09-07T08:32:24.405Z,101527
2015-09-07T08:32:34.920Z,101518
2015-09-07T08:32:45.516Z,101527
2015-09-07T08:32:56.032Z,101515
2015-09-07T08:33:06.516Z,101524
2015-09-07T08:33:16.985Z,101524
2015-09-07T08:33:27.485Z,101527
2015-09-07T08:33:38.190Z,101515
2015-09-07T08:33:49.096Z,101515
2015-09-07T08:33:59.565Z,101521
2015-09-07T08:34:10.018Z,101521
2015-09-07T08:34:20.534Z,101521
2015-09-07T08:34:31.018Z,101518
2015-09-07T08:34:41.519Z,101510
2015-09-07T08:34:52.019Z,101521
2015-09-07T08:35:02.441Z,101527
2015-09-07T08:35:12.925Z,101533
2015-09-07T08:35:24.097Z,101524
2015-09-07T08:35:35.472Z,101542
2015-09-07T08:35:45.990Z,101530
2015-09-07T08:35:56.881Z,101521
2015-09-07T08:36:07.334Z,101521
2015-09-07T08:36:17.818Z,101524
2015-09-07T08:36:28.287Z,101524
2015-09-07T08:36:40.634Z,101522
2015-09-07T08:36:51.149Z,101524
2015-09-07T08:37:01.649Z,101524
2015-09-07T08:37:12.118Z,101527
2015-09-07T08:37:22.649Z,101530
2015-09-07T08:38:25.791Z,101530
2015-09-07T08:38:36.291Z,101522
2015-09-07T08:38:46.809Z,101516
2015-09-07T08:38:57.559Z,101527
2015-09-07T08:39:08.059Z,101530
2015-09-07T08:39:18.559Z,101519
2015-09-07T08:39:29.059Z,101533
2015-09-07T08:39:39.529Z,101519
2015-09-07T08:39:50.420Z,101525
2015-09-07T08:40:01.076Z,101528
2015-09-07T08:40:12.326Z,101528
2015-09-07T08:40:22.826Z,101530
2015-09-07T08:40:33.248Z,101528
2015-09-07T08:40:43.720Z,101528
2015-09-07T08:40:55.142Z,101533
2015-09-07T08:41:05.595Z,101533
2015-09-07T08:41:16.079Z,101528
2015-09-07T08:41:26.579Z,101528
2015-09-07T08:41:39.939Z,101531
2015-09-07T08:41:51.080Z,101528
2015-09-07T08:42:02.111Z,101539
2015-09-07T08:42:13.127Z,101533
2015-09-07T08:42:23.627Z,101525
2015-09-07T08:42:34.111Z,101533
2015-09-07T08:42:44.566Z,101528
2015-09-07T08:42:55.051Z,101536
2015-09-07T08:43:05.566Z,101525
2015-09-07T08:43:16.082Z,101531
2015-09-07T08:43:27.551Z,101531
2015-09-07T08:43:38.754Z,101525
2015-09-07T08:43:49.240Z,101528
2015-09-07T08:43:59.725Z,101536
2015-09-07T08:44:10.240Z,101531
2015-09-07T08:44:20.756Z,101536
2015-09-07T08:44:31.850Z,101531
2015-09-07T08:44:42.883Z,101537
2015-09-07T08:44:53.336Z,101528
2015-09-07T08:45:03.930Z,101534
2015-09-07T08:45:15.133Z,101537
2015-09-07T08:45:25.664Z,101537
2015-09-07T08:45:36.227Z,101534
2015-09-07T08:45:47.432Z,101537
2015-09-07T08:45:57.932Z,101531
2015-09-07T08:46:08.416Z,101525
2015-09-07T08:46:18.901Z,101540
2015-09-07T08:46:29.416Z,101534
2015-09-07T08:46:39.932Z,101528
2015-09-07T08:46:50.637Z,101528
2015-09-07T08:47:01.293Z,101522
2015-09-07T08:47:13.231Z,101531
2015-09-07T08:47:24.606Z,101528
2015-09-07T08:47:35.074Z,101531
2015-09-07T08:47:45.560Z,101540
2015-09-07T08:47:56.388Z,101531
2015-09-07T08:48:06.857Z,101534
2015-09-07T08:48:18.263Z,101534
2015-09-07T08:48:29.138Z,101534
2015-09-07T08:48:39.607Z,101525
2015-09-07T08:48:50.094Z,101525
2015-09-07T08:49:00.578Z,101522
2015-09-07T08:49:11.094Z,101531
2015-09-07T08:49:21.578Z,101528
2015-09-07T08:49:32.047Z,101528
2015-09-07T08:49:42.534Z,101528
2015-09-07T08:49:52.971Z,101528
2015-09-07T08:50:04.237Z,101534
2015-09-07T08:50:15.596Z,101534
2015-09-07T08:50:26.971Z,101528
2015-09-07T08:50:37.690Z,101528
2015-09-07T08:50:48.222Z,101537
2015-09-07T08:50:58.722Z,101531
2015-09-07T08:51:09.191Z,101534
2015-09-07T08:51:20.988Z,101534
2015-09-07T08:51:31.456Z,101537
2015-09-07T08:51:41.880Z,101528
2015-09-07T08:51:52.490Z,101531
2015-09-07T08:52:02.990Z,101534
2015-09-07T08:52:13.552Z,101528
2015-09-07T08:52:24.068Z,101531
2015-09-07T08:52:34.677Z,101534
2015-09-07T08:52:45.399Z,101528
2015-09-07T08:52:55.821Z,101526
2015-09-07T08:53:06.305Z,101543
2015-09-07T08:53:16.883Z,101537
2015-09-07T08:53:27.352Z,101531
2015-09-07T08:53:38.493Z,101531
2015-09-07T08:53:49.306Z,101531
2015-09-07T08:53:59.744Z,101529
2015-09-07T08:54:10.244Z,101543
2015-09-07T08:54:21.556Z,101531
2015-09-07T08:54:32.916Z,101531
2015-09-07T08:54:44.089Z,101537
2015-09-07T08:54:54.605Z,101531
2015-09-07T08:55:05.105Z,101534
2015-09-07T08:55:15.605Z,101537
2015-09-07T08:55:26.949Z,101526
2015-09-07T08:55:37.871Z,101532
2015-09-07T08:55:48.857Z,101534
2015-09-07T08:55:59.388Z,101534
2015-09-07T08:56:09.966Z,101540
2015-09-07T08:56:20.607Z,101526
2015-09-07T08:56:31.076Z,101534
2015-09-07T08:56:41.560Z,101526
2015-09-07T08:56:52.047Z,101529
2015-09-07T08:57:02.625Z,101540
2015-09-07T08:57:13.093Z,101540
2015-09-07T08:57:23.578Z,101540
2015-09-07T08:57:34.953Z,101532
2015-09-07T08:57:45.611Z,101529
2015-09-07T08:57:56.267Z,101529
2015-09-07T08:58:06.845Z,101517
2015-09-07T08:58:17.408Z,101526
2015-09-07T08:58:27.908Z,101538
2015-09-07T08:58:38.392Z,101535
2015-09-07T08:58:48.926Z,101529
2015-09-07T08:59:00.285Z,101538
2015-09-07T08:59:11.566Z,101535
2015-09-07T08:59:22.019Z,101532
2015-09-07T08:59:32.504Z,101535
2015-09-07T08:59:42.988Z,101529
2015-09-07T08:59:53.412Z,101523
2015-09-07T09:00:04.693Z,101543
2015-09-07T09:00:15.381Z,101535
2015-09-07T09:00:25.865Z,101535
2015-09-07T09:00:36.381Z,101535
2015-09-07T09:00:47.273Z,101532
2015-09-07T09:00:57.914Z,101541
2015-09-07T09:01:08.398Z,101523
2015-09-07T09:01:18.805Z,101529
2015-09-07T09:01:29.430Z,101526
2015-09-07T09:01:39.867Z,101526
2015-09-07T09:01:50.916Z,101535
2015-09-07T09:02:02.291Z,101538
2015-09-07T09:02:13.838Z,101538
2015-09-07T09:02:24.307Z,101538
2015-09-07T09:02:34.807Z,101535
2015-09-07T09:02:45.340Z,101538
2015-09-07T09:02:55.824Z,101532
2015-09-07T09:03:06.309Z,101532
2015-09-07T09:03:16.949Z,101532
2015-09-07T09:03:27.434Z,101526
2015-09-07T09:03:37.902Z,101523
2015-09-07T09:03:49.591Z,101526
2015-09-07T09:04:00.060Z,101532
2015-09-07T09:04:10.481Z,101532
2015-09-07T09:04:21.653Z,101529
2015-09-07T09:04:32.216Z,101529
2015-09-07T09:04:42.700Z,101524
2015-09-07T09:04:54.280Z,101532
2015-09-07T09:05:05.562Z,101521
2015-09-07T09:05:16.030Z,101529
2015-09-07T09:05:26.499Z,101529
2015-09-07T09:05:36.968Z,101529
2015-09-07T09:05:47.470Z,101515
2015-09-07T09:05:58.001Z,101524
2015-09-07T09:06:08.485Z,101527
2015-09-07T09:06:18.954Z,101532
2015-09-07T09:06:29.642Z,101529
2015-09-07T09:06:40.142Z,101529
2015-09-07T09:06:50.660Z,101524
2015-09-07T09:07:01.832Z,101524
2015-09-07T09:07:12.254Z,101535
2015-09-07T09:07:22.676Z,101527
2015-09-07T09:07:34.035Z,101535
2015-09-07T09:07:45.379Z,101524
2015-09-07T09:07:56.959Z,101527
2015-09-07T09:08:07.397Z,101535
2015-09-07T09:08:17.944Z,101530
2015-09-07T09:08:28.522Z,101533
2015-09-07T09:08:38.959Z,101532
2015-09-07T09:08:50.320Z,101527
2015-09-07T09:09:02.101Z,101532
2015-09-07T09:09:12.554Z,101527
2015-09-07T09:09:23.241Z,101524
2015-09-07T09:09:33.991Z,101538
2015-09-07T09:09:44.476Z,101530
2015-09-07T09:09:55.713Z,101530
2015-09-07T09:10:06.198Z,101538
2015-09-07T09:10:16.713Z,101530
2015-09-07T09:10:28.666Z,101536
2015-09-07T09:10:39.135Z,101527
2015-09-07T09:10:49.621Z,101530
2015-09-07T09:11:00.200Z,101530
2015-09-07T09:11:10.793Z,101538
2015-09-07T09:11:21.293Z,101536
2015-09-07T09:11:31.668Z,101536
2015-09-07T09:11:42.246Z,101536
2015-09-07T09:11:53.544Z,101538
2015-09-07T09:12:04.060Z,101530
2015-09-07T09:12:14.560Z,101541
2015-09-07T09:12:24.982Z,101536
2015-09-07T09:12:35.482Z,101541
2015-09-07T09:12:46.185Z,101536
2015-09-07T09:12:56.687Z,101530
2015-09-07T09:13:07.156Z,101547
2015-09-07T09:13:18.484Z,101530
2015-09-07T09:13:29.656Z,101539
2015-09-07T09:13:40.124Z,101539
2015-09-07T09:14:43.580Z,101542
2015-09-07T09:14:54.112Z,101545
2015-09-07T09:15:04.737Z,101545
2015-09-07T09:15:16.174Z,101545
2015-09-07T09:15:26.815Z,101550
2015-09-07T09:15:37.315Z,101548
2015-09-07T09:15:47.752Z,101542
2015-09-07T09:15:58.379Z,101545
2015-09-07T09:16:08.911Z,101530
2015-09-07T09:16:19.395Z,101542
2015-09-07T09:16:29.879Z,101542
2015-09-07T09:16:40.395Z,101539
2015-09-07T09:16:50.898Z,101545
2015-09-07T09:17:01.586Z,101542
2015-09-07T09:17:12.211Z,101539
2015-09-07T09:17:22.664Z,101542
2015-09-07T09:17:33.117Z,101551
2015-09-07T09:17:44.211Z,101545
2015-09-07T09:17:54.806Z,101542
2015-09-07T09:18:05.322Z,101542
2015-09-07T09:18:15.806Z,101551
2015-09-07T09:18:26.275Z,101542
2015-09-07T09:18:36.931Z,101545
2015-09-07T09:18:47.447Z,101551
2015-09-07T09:18:57.901Z,101545
2015-09-07T09:19:08.370Z,101542
2015-09-07T09:19:18.901Z,101545
2015-09-07T09:19:29.385Z,101545
2015-09-07T09:19:40.526Z,101545
2015-09-07T09:19:51.919Z,101539
2015-09-07T09:20:02.434Z,101542
2015-09-07T09:20:12.950Z,101551
2015-09-07T09:20:23.466Z,101542
2015-09-07T09:20:34.778Z,101539
2015-09-07T09:20:46.153Z,101539
2015-09-07T09:20:56.593Z,101539
2015-09-07T09:21:07.093Z,101545
2015-09-07T09:21:17.686Z,101545
2015-09-07T09:21:28.186Z,101530
2015-09-07T09:21:39.389Z,101545
2015-09-07T09:21:50.671Z,101536
2015-09-07T09:22:02.080Z,101536
2015-09-07T09:22:12.580Z,101539
2015-09-07T09:22:23.721Z,101539
2015-09-07T09:22:34.174Z,101539
2015-09-07T09:22:44.658Z,101545
2015-09-07T09:22:55.253Z,101539
2015-09-07T09:23:05.847Z,101539
2015-09-07T09:23:17.018Z,101548
2015-09-07T09:23:28.472Z,101545
2015-09-07T09:23:39.753Z,101539
2015-09-07T09:23:50.347Z,101534
2015-09-07T09:24:00.786Z,101539
2015-09-07T09:24:11.349Z,101548
2015-09-07T09:24:21.817Z,101545
2015-09-07T09:24:32.895Z,101542
2015-09-07T09:24:43.489Z,101536
2015-09-07T09:24:54.366Z,101534
2015-09-07T09:25:04.897Z,101536
2015-09-07T09:25:15.382Z,101539
2015-09-07T09:25:26.476Z,101545
2015-09-07T09:25:36.944Z,101548
2015-09-07T09:25:47.444Z,101545
2015-09-07T09:25:57.931Z,101542
2015-09-07T09:26:09.306Z,101542
2015-09-07T09:26:19.743Z,101542
2015-09-07T09:26:30.290Z,101542
2015-09-07T09:26:40.806Z,101528
2015-09-07T09:26:51.337Z,101557
2015-09-07T09:27:02.651Z,101545
2015-09-07T09:27:13.167Z,101531
2015-09-07T09:27:23.651Z,101545
2015-09-07T09:27:34.183Z,101534
2015-09-07T09:27:44.683Z,101534
2015-09-07T09:27:55.216Z,101534
2015-09-07T09:28:06.247Z,101537
2015-09-07T09:28:17.513Z,101537
2015-09-07T09:28:27.872Z,101537
2015-09-07T09:28:38.403Z,101528
2015-09-07T09:28:48.919Z,101534
2015-09-07T09:28:59.437Z,101534
2015-09-07T09:29:09.874Z,101543
2015-09-07T09:29:20.390Z,101531
2015-09-07T09:29:31.046Z,101531
2015-09-07T09:29:41.546Z,101548
2015-09-07T09:29:52.405Z,101540
2015-09-07T09:30:02.986Z,101531
2015-09-07T09:30:13.470Z,101546
2015-09-07T09:30:23.970Z,101537
2015-09-07T09:30:34.595Z,101543
2015-09-07T09:30:45.032Z,101534
2015-09-07T09:30:55.472Z,101546
2015-09-07T09:31:06.050Z,101531
2015-09-07T09:31:16.581Z,101534
2015-09-07T09:31:27.050Z,101534
2015-09-07T09:31:37.534Z,101546
2015-09-07T09:31:48.722Z,101540
2015-09-07T09:31:59.505Z,101546
2015-09-07T09:32:09.958Z,101546
2015-09-07T09:32:21.802Z,101543
2015-09-07T09:32:32.302Z,101549
2015-09-07T09:32:42.802Z,101537
2015-09-07T09:32:53.427Z,101543
2015-09-07T09:33:03.928Z,101540
2015-09-07T09:33:14.428Z,101546
2015-09-07T09:33:25.397Z,101540
2015-09-07T09:33:36.522Z,101534
2015-09-07T09:33:47.022Z,101543
2015-09-07T09:33:57.571Z,101552
2015-09-07T09:34:08.055Z,101543
2015-09-07T09:34:18.899Z,101540
2015-09-07T09:34:29.399Z,101540
2015-09-07T09:34:39.883Z,101543
2015-09-07T09:34:50.524Z,101543
2015-09-07T09:35:01.105Z,101537
2015-09-07T09:35:11.589Z,101537
2015-09-07T09:35:22.074Z,101549
2015-09-07T09:35:33.355Z,101540
2015-09-07T09:35:43.839Z,101540
2015-09-07T09:35:54.386Z,101540
2015-09-07T09:36:04.887Z,101546
2015-09-07T09:36:16.028Z,101543
2015-09-07T09:36:26.543Z,101546
2015-09-07T09:36:37.012Z,101546
2015-09-07T09:36:47.481Z,101546
2015-09-07T09:36:58.717Z,101540
2015-09-07T09:37:09.264Z,101546
2015-09-07T09:37:19.702Z,101543
2015-09-07T09:37:30.233Z,101540
2015-09-07T09:37:40.795Z,101537
2015-09-07T09:37:51.920Z,101531
2015-09-07T09:38:02.376Z,101549
2015-09-07T09:38:13.001Z,101546
2015-09-07T09:38:23.485Z,101540
2015-09-07T09:38:33.954Z,101546
2015-09-07T09:38:44.563Z,101546
2015-09-07T09:38:54.938Z,101543
2015-09-07T09:39:05.393Z,101543
2015-09-07T09:39:15.924Z,101546
2015-09-07T09:39:26.487Z,101543
2015-09-07T09:39:36.987Z,101540
2015-09-07T09:39:47.503Z,101549
2015-09-07T09:39:58.223Z,101543
2015-09-07T09:40:08.739Z,101540
2015-09-07T09:40:19.270Z,101555
2015-09-07T09:40:31.192Z,101549
2015-09-07T09:40:41.926Z,101543
2015-09-07T09:40:52.333Z,101537
2015-09-07T09:41:02.882Z,101549
2015-09-07T09:41:13.428Z,101552
2015-09-07T09:41:23.850Z,101540
2015-09-07T09:41:35.163Z,101543
2015-09-07T09:41:45.647Z,101537
2015-09-07T09:41:56.460Z,101546
2015-09-07T09:42:06.930Z,101546
2015-09-07T09:42:17.571Z,101543
2015-09-07T09:42:28.087Z,101549
2015-09-07T09:42:38.571Z,101543
2015-09-07T09:42:49.071Z,101555
2015-09-07T09:42:59.557Z,101546
2015-09-07T09:43:10.620Z,101552
2015-09-07T09:43:21.729Z,101546
2015-09-07T09:43:32.214Z,101546
2015-09-07T09:43:42.698Z,101555
2015-09-07T09:43:53.214Z,101558
2015-09-07T09:44:03.669Z,101549
2015-09-07T09:44:14.138Z,101549
2015-09-07T09:44:24.669Z,101543
2015-09-07T09:44:35.169Z,101549
2015-09-07T09:44:45.669Z,101540
2015-09-07T09:44:56.200Z,101546
2015-09-07T09:45:07.280Z,101549
2015-09-07T09:45:17.765Z,101546
2015-09-07T09:45:29.108Z,101546
2015-09-07T09:45:40.390Z,101538
2015-09-07T09:45:51.796Z,101552
2015-09-07T09:46:02.219Z,101552
2015-09-07T09:46:12.766Z,101549
2015-09-07T09:46:23.344Z,101552
2015-09-07T09:46:33.812Z,101555
2015-09-07T09:46:44.969Z,101552
2015-09-07T09:46:55.500Z,101555
2015-09-07T09:47:05.924Z,101546
2015-09-07T09:47:16.439Z,101546
2015-09-07T09:47:26.955Z,101558
2015-09-07T09:47:37.408Z,101558
2015-09-07T09:47:48.299Z,101546
2015-09-07T09:47:59.471Z,101561
2015-09-07T09:48:10.816Z,101564
2015-09-07T09:48:21.410Z,101564
2015-09-07T09:48:31.879Z,101561
2015-09-07T09:48:42.332Z,101558
2015-09-07T09:48:52.957Z,101558
2015-09-07T09:49:03.476Z,101564
2015-09-07T09:49:14.554Z,101567
2015-09-07T09:49:25.507Z,101555
2015-09-07T09:49:36.351Z,101567
2015-09-07T09:49:46.898Z,101555
2015-09-07T09:49:57.741Z,101567
2015-09-07T09:50:08.275Z,101558
2015-09-07T09:50:18.837Z,101558
2015-09-07T09:50:29.431Z,101561
2015-09-07T09:50:40.056Z,101564
2015-09-07T09:50:50.509Z,101558
2015-09-07T09:51:00.993Z,101564
2015-09-07T09:51:12.933Z,101555
2015-09-07T09:51:23.480Z,101558
2015-09-07T09:51:33.933Z,101558
2015-09-07T09:51:44.558Z,101561
2015-09-07T09:51:55.761Z,101553
2015-09-07T09:52:06.263Z,101558
2015-09-07T09:52:16.747Z,101567
2015-09-07T09:52:27.310Z,101561
2015-09-07T09:52:38.466Z,101561
2015-09-07T09:52:48.950Z,101553
2015-09-07T09:52:59.575Z,101558
2015-09-07T09:53:10.248Z,101556
2015-09-07T09:53:20.780Z,101564
2015-09-07T09:53:31.233Z,101556
2015-09-07T09:53:41.889Z,101558
2015-09-07T09:53:53.108Z,101564
2015-09-07T09:54:03.578Z,101556
2015-09-07T09:54:14.078Z,101561
2015-09-07T09:54:25.110Z,101567
2015-09-07T09:54:36.500Z,101567
2015-09-07T09:54:46.985Z,101558
2015-09-07T09:54:57.438Z,101559
2015-09-07T09:55:07.971Z,101564
2015-09-07T09:55:18.455Z,101567
2015-09-07T09:55:28.940Z,101559
2015-09-07T09:55:41.799Z,101547
2015-09-07T09:55:53.080Z,101556
2015-09-07T09:56:03.973Z,101573
2015-09-07T09:56:14.473Z,101556
2015-09-07T09:56:24.973Z,101564
2015-09-07T09:56:36.098Z,101567
2015-09-07T09:56:46.739Z,101570
2015-09-07T09:56:57.223Z,101567
2015-09-07T09:57:07.772Z,101564
2015-09-07T09:57:18.288Z,101570
2015-09-07T09:57:28.756Z,101567
2015-09-07T09:57:40.069Z,101567
2015-09-07T09:57:51.444Z,101559
2015-09-07T09:58:01.959Z,101567
2015-09-07T09:58:12.461Z,101567
2015-09-07T09:58:23.336Z,101564
2015-09-07T09:58:33.836Z,101564
2015-09-07T09:58:44.305Z,101565
2015-09-07T09:58:54.805Z,101567
2015-09-07T09:59:05.292Z,101567
2015-09-07T09:59:15.823Z,101570
2015-09-07T09:59:26.932Z,101565
2015-09-07T09:59:38.057Z,101573
2015-09-07T09:59:48.635Z,101570
2015-09-07T09:59:59.167Z,101565
2015-09-07T10:00:09.731Z,101562
2015-09-07T10:00:20.153Z,101562
2015-09-07T10:00:31.372Z,101568
2015-09-07T10:00:42.731Z,101570
2015-09-07T10:00:53.231Z,101568
2015-09-07T10:01:03.684Z,101573
2015-09-07T10:01:14.171Z,101568
2015-09-07T10:01:24.717Z,101570
2015-09-07T10:01:35.155Z,101559
2015-09-07T10:01:45.655Z,101570
2015-09-07T10:01:57.046Z,101570
2015-09-07T10:02:07.484Z,101562
2015-09-07T10:02:17.937Z,101559
2015-09-07T10:02:28.484Z,101559
2015-09-07T10:02:38.937Z,101568
2015-09-07T10:02:49.422Z,101562
2015-09-07T10:03:00.187Z,101570
2015-09-07T10:03:10.768Z,101565
2015-09-07T10:03:21.253Z,101562
2015-09-07T10:03:31.737Z,101559
2015-09-07T10:03:42.456Z,101556
2015-09-07T10:03:52.956Z,101553
2015-09-07T10:04:04.065Z,101568
2015-09-07T10:04:14.551Z,101562
2015-09-07T10:04:24.972Z,101565
2015-09-07T10:04:35.488Z,101556
2015-09-07T10:04:46.269Z,101553
2015-09-07T10:04:57.301Z,101565
2015-09-07T10:05:07.787Z,101562
2015-09-07T10:05:18.303Z,101559
2015-09-07T10:05:28.834Z,101559
2015-09-07T10:05:39.709Z,101559
2015-09-07T10:05:51.537Z,101559
2015-09-07T10:06:02.068Z,101562
2015-09-07T10:06:13.226Z,101562
2015-09-07T10:06:23.695Z,101553
2015-09-07T10:06:34.164Z,101559
2015-09-07T10:06:44.633Z,101556
2015-09-07T10:06:55.820Z,101565
2015-09-07T10:07:06.260Z,101556
2015-09-07T10:07:16.775Z,101556
2015-09-07T10:07:27.213Z,101562
2015-09-07T10:07:37.697Z,101565
2015-09-07T10:07:48.244Z,101556
2015-09-07T10:07:58.744Z,101559
2015-09-07T10:08:09.230Z,101562
2015-09-07T10:08:19.715Z,101562
2015-09-07T10:08:30.230Z,101562
2015-09-07T10:08:41.496Z,101562
